Latest Weather Observations for Georgetown Airport

IDQ60801

Issued at 2:32 pm EST Tuesday 3 May 2016 (issued every 30 minutes, with the page automatically refreshed every 10 minutes)

About weather observations | Map of weather stations | Latest weather observations for QLD | Other Formats
Station Details ID: 030124 Name: GEORGETOWN AIRPORT Lat: -18.30 Lon: 143.53 Height: 301.77 m
Data from the previous 72 hours. | See also: Recent months at Georgetown Airport
Date/Time
EST
Temp
°C
App
Temp
°C
Dew
Point
Rel
Hum
%
Delta-T
°C
Wind Press
QNH
hPa
Press
MSL
hPa
Rain
since 9 am
mm
Dir
 
Spd
km/h
Gust
km/h
Spd
kts
Gust
kts
03/02:30pm 33.9 34.7 16.3 35 11.3 NNW 7 13 4 7 1011.6 - 0.0
03/02:00pm 33.3 33.4 16.6 36 10.7 WSW 11 17 6 9 1012.1 - 0.0
03/01:30pm 32.9 34.0 17.1 39 10.2 E 7 11 4 6 1012.6 - 0.0
03/01:00pm 33.0 34.1 18.0 41 9.8 N 9 17 5 9 1013.2 - 0.0
03/12:30pm 33.2 35.3 19.3 44 9.2 WSW 7 13 4 7 1013.8 - 0.0
03/12:00pm 31.4 32.7 18.4 46 8.5 N 9 15 5 8 1014.3 1012.9 0.0
03/11:30am 31.2 32.8 19.2 48 7.9 WNW 9 15 5 8 1014.8 - 0.0
03/11:00am 30.7 32.4 19.4 51 7.5 NW 9 15 5 8 1015.1 - 0.0
03/10:30am 29.8 30.8 18.6 51 7.3 NW 11 20 6 11 1015.7 - 0.0
03/10:00am 29.2 30.8 19.2 54 6.6 NE 9 11 5 6 1015.9 - 0.0
03/09:30am 28.2 30.3 19.4 59 5.8 NNE 7 13 4 7 1016.0 - 0.0
03/09:00am 27.4 29.7 19.5 62 5.2 N 6 9 3 5 1015.9 1014.5 0.0
03/08:30am 26.8 29.6 19.7 65 4.7 NE 4 7 2 4 1015.8 - 0.0
03/08:00am 25.5 27.7 19.6 70 3.9 NE 7 11 4 6 1015.6 - 0.0
03/07:30am 23.9 27.3 19.4 76 2.9 CALM 0 0 0 0 1015.5 - 0.0
03/07:00am 21.8 24.9 18.6 82 2.0 CALM 0 6 0 3 1015.6 - 0.0
03/06:30am 22.0 24.0 18.8 82 2.0 NNE 6 9 3 5 1014.8 - 0.0
03/06:00am 21.8 24.8 18.4 81 2.2 CALM 0 0 0 0 1014.5 1013.0 0.0
03/05:30am 21.7 24.6 18.3 81 2.2 CALM 0 0 0 0 1014.2 - 0.0
03/05:00am 22.4 25.4 18.4 78 2.5 CALM 0 0 0 0 1013.9 - 0.0
03/04:30am 23.0 25.9 18.3 75 3.0 CALM 0 0 0 0 1013.7 - 0.0
03/04:00am 23.3 26.3 18.4 74 3.1 CALM 0 0 0 0 1013.7 - 0.0
03/03:30am 24.4 26.6 18.3 69 3.9 ENE 4 6 2 3 1013.4 - 0.0
03/03:00am 25.0 26.4 18.7 68 4.1 ENE 9 11 5 6 1013.5 1012.1 0.0
03/02:30am 25.4 27.2 18.8 67 4.3 ENE 7 9 4 5 1013.8 - 0.0
03/02:00am 24.2 25.7 17.7 67 4.1 NE 6 7 3 4 1013.9 - 0.0
03/01:30am 24.9 27.5 17.6 64 4.6 CALM 0 2 0 1 1013.9 - 0.0
03/01:00am 25.4 27.9 17.3 61 5.1 CALM 0 0 0 0 1014.1 - 0.0
03/12:30am 26.6 28.0 17.4 57 5.8 NNE 6 7 3 4 1014.3 - 0.0
03/12:00am 26.5 29.0 17.3 57 5.8 CALM 0 0 0 0 1014.8 1013.3 0.0
 
Date/Time
EST
Temp
°C
App
Temp
°C
Dew
Point
Rel
Hum
%
Delta-T
°C
Wind Press
QNH
hPa
Press
MSL
hPa
Rain
since 9 am
mm
Dir
 
Spd
km/h
Gust
km/h
Spd
kts
Gust
kts
02/11:30pm 25.8 27.6 16.4 56 5.9 ENE 2 9 1 5 1014.8 - 0.0
02/11:00pm 25.5 27.2 16.1 56 5.8 E 2 7 1 4 1014.7 - 0.0
02/10:30pm 25.6 26.7 15.6 54 6.1 E 4 7 2 4 1014.5 - 0.0
02/10:00pm 25.4 27.2 16.5 58 5.5 S 2 11 1 6 1014.7 - 0.0
02/09:30pm 25.0 26.6 15.0 53 6.1 CALM 0 0 0 0 1014.2 - 0.0
02/09:00pm 25.3 26.9 15.0 53 6.3 CALM 0 4 0 2 1014.2 1012.8 0.0
02/08:30pm 26.3 26.7 14.7 48 7.0 SE 6 7 3 4 1014.1 - 0.0
02/08:00pm 26.5 28.1 14.9 49 7.1 CALM 0 0 0 0 1013.7 - 0.0
02/07:30pm 27.9 29.2 14.2 43 8.3 CALM 0 0 0 0 1013.4 - 0.0
02/07:00pm 28.8 28.9 13.9 40 9.0 ENE 6 6 3 3 1012.9 - 0.0
02/06:30pm 31.5 31.2 13.3 33 11.0 E 7 9 4 5 1012.7 - 0.0
02/06:00pm 32.9 32.7 13.5 30 11.9 E 7 11 4 6 1012.4 1011.0 0.0
02/05:30pm 33.7 33.0 13.2 29 12.5 SE 9 13 5 7 1012.1 - 0.0
02/05:00pm 34.5 34.0 12.2 26 13.5 E 6 9 3 5 1011.7 - 0.0
02/04:30pm 34.9 33.4 11.9 24 13.8 SSE 11 17 6 9 1011.5 - 0.0
02/04:00pm 35.6 35.1 11.9 24 14.3 E 6 13 3 7 1011.2 - 0.0
02/03:30pm 35.3 34.5 11.0 23 14.5 ESE 6 15 3 8 1011.3 - 0.0
02/03:00pm 36.1 36.5 14.7 28 13.5 S 6 15 3 8 1011.4 1009.9 0.0
02/02:30pm 35.3 34.7 14.6 29 13.0 NE 11 19 6 10 1011.7 - 0.0
02/02:00pm 34.6 34.1 15.0 31 12.3 S 11 19 6 10 1012.0 - 0.0
02/01:30pm 34.5 34.6 14.4 30 12.5 SSE 7 22 4 12 1012.5 - 0.0
02/01:00pm 34.1 34.3 14.6 31 12.2 N 7 13 4 7 1013.0 - 0.0
02/12:30pm 33.4 32.8 14.5 32 11.8 E 11 17 6 9 1013.6 - 0.0
02/12:00pm 33.5 33.2 15.5 34 11.4 E 11 19 6 10 1014.1 1012.7 0.0
02/11:00am 31.7 31.9 16.8 40 9.5 ENE 11 15 6 8 1015.3 - 0.0
02/10:30am 30.4 32.1 18.5 49 7.8 E 7 11 4 6 1015.8 - 0.0
02/10:00am 29.6 31.0 18.7 52 7.1 ENE 9 15 5 8 1016.0 - 0.0
02/09:30am 28.8 30.0 19.1 55 6.3 ENE 11 15 6 8 1016.0 - 0.0
02/09:00am 27.5 29.6 20.1 64 4.9 E 9 15 5 8 1016.2 1014.8 0.0
02/08:30am 26.0 28.4 19.6 68 4.2 ENE 6 9 3 5 1016.1 - 0.0
02/08:00am 24.9 27.3 19.7 73 3.4 ESE 6 9 3 5 1016.0 - 0.0
02/07:30am 23.6 26.1 19.9 80 2.4 ESE 6 9 3 5 1015.9 - 0.0
02/07:00am 22.1 24.6 19.8 87 1.5 ESE 6 9 3 5 1015.7 - 0.0
02/06:30am 21.8 24.1 19.5 87 1.5 E 6 7 3 4 1015.5 - 0.0
02/06:00am 22.0 25.3 19.2 84 1.8 CALM 0 2 0 1 1015.1 1013.7 0.0
02/05:30am 23.1 25.4 19.9 82 2.1 E 7 11 4 6 1014.9 - 0.0
02/05:00am 23.2 25.1 19.8 81 2.2 NE 9 11 5 6 1014.6 - 0.0
02/04:30am 23.9 25.9 20.0 79 2.5 NE 9 13 5 7 1014.7 - 0.0
02/04:00am 24.1 26.1 20.0 78 2.7 E 9 15 5 8 1014.6 - 0.0
02/03:30am 23.9 25.8 19.8 78 2.7 E 9 11 5 6 1014.5 - 0.0
02/03:00am 24.2 26.2 19.9 77 2.8 E 9 11 5 6 1014.2 1012.8 0.0
02/02:30am 24.3 26.6 19.8 76 2.9 ESE 7 11 4 6 1014.2 - 0.0
02/02:00am 24.9 27.1 19.7 73 3.4 E 7 11 4 6 1014.5 - 0.0
02/01:30am 25.4 27.3 19.8 71 3.7 E 9 11 5 6 1014.6 - 0.0
02/01:00am 25.9 27.1 19.8 69 4.0 E 13 17 7 9 1014.6 - 0.0
02/12:30am 26.3 27.0 19.7 67 4.3 ENE 15 20 8 11 1014.8 - 0.0
02/12:00am 26.6 27.7 19.7 66 4.5 ENE 13 17 7 9 1015.1 1013.7 0.0
 
Date/Time
EST
Temp
°C
App
Temp
°C
Dew
Point
Rel
Hum
%
Delta-T
°C
Wind Press
QNH
hPa
Press
MSL
hPa
Rain
since 9 am
mm
Dir
 
Spd
km/h
Gust
km/h
Spd
kts
Gust
kts
01/11:30pm 27.2 27.5 19.5 62 5.0 ENE 17 24 9 13 1015.1 - 0.0
01/11:00pm 27.7 28.0 19.5 61 5.4 ENE 17 26 9 14 1015.3 - 0.0
01/10:30pm 28.1 28.5 19.1 58 5.9 ENE 15 24 8 13 1015.3 - 0.0
01/10:00pm 28.8 28.8 18.9 55 6.5 ENE 17 22 9 12 1015.3 - 0.0
01/09:30pm 29.1 29.0 18.8 53 6.7 ENE 17 24 9 13 1015.1 - 0.0
01/09:00pm 29.7 30.0 18.8 52 7.1 ENE 15 24 8 13 1015.2 1013.8 0.0
01/08:30pm 30.2 30.7 18.3 49 7.7 E 13 26 7 14 1015.1 - 0.0
01/08:00pm 30.6 31.6 17.7 46 8.3 ESE 9 13 5 7 1014.9 - 0.0
01/07:30pm 30.3 31.2 16.7 44 8.6 ESE 7 9 4 5 1014.2 - 0.0
01/07:00pm 30.9 31.8 16.5 42 9.1 ESE 7 9 4 5 1013.8 - 0.0
01/06:30pm 31.7 31.7 15.2 36 10.3 E 9 13 5 7 1013.3 - 0.0
01/06:00pm 32.5 32.5 14.1 32 11.3 SSE 7 9 4 5 1012.8 1011.4 0.0
01/05:30pm 33.9 33.8 13.4 29 12.6 SSE 6 9 3 5 1012.5 - 0.0
01/05:00pm 34.7 33.9 13.0 27 13.3 ESE 9 17 5 9 1012.3 - 0.0
01/04:30pm 35.0 34.1 12.6 26 13.6 ESE 9 17 5 9 1012.2 - 0.0
01/04:00pm 35.0 34.3 13.2 27 13.4 SSE 9 17 5 9 1012.1 - 0.0
01/03:30pm 35.2 34.6 13.4 27 13.4 SE 9 19 5 10 1012.1 - 0.0
01/03:00pm 35.4 35.2 13.5 26 13.5 E 7 22 4 12 1012.3 1010.9 0.0
01/02:30pm 35.2 33.6 12.8 26 13.7 ESE 13 20 7 11 1012.6 - 0.0
01/02:00pm 35.1 32.7 13.8 27 13.2 ESE 19 24 10 13 1013.0 - 0.0
01/01:30pm 34.8 33.8 14.7 30 12.6 E 13 24 7 13 1013.3 - 0.0
01/01:00pm 33.9 33.2 15.4 33 11.7 E 13 26 7 14 1013.8 - 0.0
01/12:30pm 33.8 33.2 15.7 33 11.5 ENE 13 20 7 11 1014.6 - 0.0
01/12:00pm 32.8 31.7 15.3 34 11.0 ESE 15 24 8 13 1015.2 1013.8 0.0
01/11:30am 33.0 32.1 15.9 35 10.8 ENE 15 24 8 13 1015.6 - 0.0
01/11:00am 32.2 31.4 16.1 38 10.2 ENE 15 26 8 14 1016.3 - 0.0
01/10:30am 30.9 30.8 16.9 43 8.9 E 13 20 7 11 1016.7 - 0.0
01/10:00am 29.6 28.7 17.8 49 7.6 E 19 28 10 15 1017.1 - 0.0
01/09:30am 29.2 29.0 18.6 52 6.9 E 17 24 9 13 1017.3 - 0.0
01/09:00am 28.0 27.3 18.7 57 6.0 E 20 28 11 15 1017.1 1015.7 0.0
01/08:30am 26.7 26.5 18.6 61 5.2 E 17 24 9 13 1017.0 - 0.0
01/08:00am 25.6 25.8 18.5 65 4.6 E 15 20 8 11 1016.8 - 0.0
01/07:30am 24.2 25.5 19.3 74 3.2 E 11 15 6 8 1016.5 - 0.0
01/07:00am 21.2 24.3 18.6 85 1.6 CALM 0 6 0 3 1016.3 - 0.0
01/06:30am 20.4 23.2 18.0 86 1.5 CALM 0 0 0 0 1016.1 - 0.0
01/06:00am 20.8 23.5 17.8 83 1.9 CALM 0 6 0 3 1015.8 1014.4 0.0
01/05:30am 21.3 24.2 18.3 83 1.9 CALM 0 0 0 0 1015.7 - 0.0
01/05:00am 21.5 24.5 18.5 83 1.9 CALM 0 0 0 0 1015.6 - 0.0
01/04:30am 21.3 24.2 18.1 82 2.0 CALM 0 0 0 0 1015.2 - 0.0
01/04:00am 21.8 24.8 18.4 81 2.2 CALM 0 0 0 0 1014.9 - 0.0
01/03:30am 22.5 25.4 18.1 76 2.8 CALM 0 0 0 0 1014.8 - 0.0
01/03:00am 22.7 25.5 18.0 75 3.0 CALM 0 6 0 3 1014.9 1013.5 0.0
01/02:30am 23.9 25.5 18.3 71 3.6 E 7 9 4 5 1014.9 - 0.0
01/02:00am 24.4 26.0 18.3 69 3.9 E 7 9 4 5 1015.1 - 0.0
01/01:30am 24.8 26.5 18.5 68 4.0 ENE 7 11 4 6 1015.3 - 0.0
01/01:00am 24.9 26.1 18.3 66 4.2 ENE 9 13 5 7 1015.6 - 0.0
01/12:30am 25.2 27.0 18.2 65 4.5 ENE 6 9 3 5 1015.5 - 0.0
01/12:00am 26.0 26.8 18.2 62 5.0 ENE 11 17 6 9 1015.7 1014.3 0.0
 
Date/Time
EST
Temp
°C
App
Temp
°C
Dew
Point
Rel
Hum
%
Delta-T
°C
Wind Press
QNH
hPa
Press
MSL
hPa
Rain
since 9 am
mm
Dir
 
Spd
km/h
Gust
km/h
Spd
kts
Gust
kts
30/11:30pm 26.5 26.9 18.1 60 5.4 ENE 13 17 7 9 1015.8 - 0.0
30/11:00pm 26.9 27.3 18.2 59 5.6 ENE 13 20 7 11 1015.9 - 0.0
30/10:30pm 27.3 27.4 18.3 58 5.8 ENE 15 20 8 11 1015.7 - 0.0
30/10:00pm 27.8 28.0 18.5 57 6.0 ENE 15 24 8 13 1015.8 - 0.0
30/09:30pm 27.7 29.2 18.1 56 6.2 E 7 13 4 7 1015.9 - 0.0
30/09:00pm 28.2 29.2 17.7 53 6.7 E 9 13 5 7 1015.7 1013.9 0.0
30/08:30pm 28.6 29.6 17.8 52 6.9 ESE 9 11 5 6 1015.3 - 0.0
30/08:00pm 28.8 30.2 17.7 51 7.1 E 7 7 4 4 1015.0 - 0.0
30/07:30pm 29.8 30.7 17.6 48 7.8 ESE 9 13 5 7 1014.6 - 0.0
30/07:00pm 30.3 31.1 17.4 46 8.3 ESE 9 15 5 8 1014.2 - 0.0
30/06:30pm 30.7 31.3 16.7 43 8.9 SE 9 15 5 8 1013.7 - 0.0
30/06:00pm 31.2 31.2 15.2 38 10.0 SE 9 13 5 7 1013.3 1011.5 0.0
30/05:30pm 32.3 32.1 15.7 36 10.5 ESE 11 15 6 8 1013.2 - 0.0
30/05:00pm 33.6 33.7 16.5 36 10.9 SE 11 20 6 11 1013.0 - 0.0
30/04:30pm 33.4 33.2 15.8 34 11.2 SSE 11 20 6 11 1012.9 - 0.0
30/04:00pm 33.7 32.7 15.7 34 11.4 E 15 22 8 12 1012.8 - 0.0
30/03:30pm 32.9 32.7 15.8 35 10.8 ESE 11 20 6 11 1012.8 - 0.0
30/03:00pm 33.8 33.4 15.3 33 11.7 E 11 15 6 8 1012.9 1011.1 0.0

Other Formats:

Comma delimited format used in spreadsheet applications
http://www.bom.gov.au/fwo/IDQ60801/IDQ60801.94274.axf

JavaScript Object Notation format (JSON) in row-major order
http://www.bom.gov.au/fwo/IDQ60801/IDQ60801.94274.json